createdAt,value
2023-05-21T00:04:57.508Z,28.1
2023-05-21T00:10:49.934Z,28
2023-05-21T00:16:40.484Z,28
2023-05-21T00:22:33.159Z,27.9
2023-05-21T00:28:24.541Z,27.9
2023-05-21T00:34:01.257Z,27.9
2023-05-21T00:39:53.104Z,27.9
2023-05-21T00:45:44.921Z,27.9
2023-05-21T00:51:20.293Z,27.9
2023-05-21T00:56:57.199Z,27.9
2023-05-21T01:02:48.914Z,27.9
2023-05-21T01:25:29.241Z,27.8
2023-05-21T01:31:21.814Z,27.8
2023-05-21T01:37:14.759Z,27.8
2023-05-21T01:43:05.721Z,27.8
2023-05-21T01:48:58.078Z,27.7
2023-05-21T01:54:49.632Z,27.7
2023-05-21T02:00:39.989Z,27.7
2023-05-21T02:06:32.909Z,27.6
2023-05-21T02:12:24.186Z,27.6
2023-05-21T02:18:16.233Z,27.6
2023-05-21T02:24:08.230Z,27.6
2023-05-21T02:30:00.480Z,27.6
2023-05-21T02:35:36.384Z,27.6
2023-05-21T02:41:13.605Z,27.6
2023-05-21T02:47:05.746Z,27.5
2023-05-21T02:52:56.868Z,27.5
2023-05-21T02:58:48.565Z,27.5
2023-05-21T03:04:40.950Z,27.5
2023-05-21T03:10:31.795Z,27.4
2023-05-21T03:16:24.611Z,27.4
2023-05-21T03:22:16.526Z,27.4
2023-05-21T03:28:08.370Z,27.4
2023-05-21T03:34:02.357Z,27.4
2023-05-21T03:39:53.841Z,27.4
2023-05-21T03:45:44.926Z,27.3
2023-05-21T03:51:37.780Z,27.3
2023-05-21T03:57:29.426Z,27.3
2023-05-21T04:03:20.509Z,27.3
2023-05-21T04:09:16.976Z,27.3
2023-05-21T04:15:11.750Z,27.2
2023-05-21T04:21:03.125Z,27
2023-05-21T04:26:55.004Z,26.2
2023-05-21T04:32:46.212Z,25.9
2023-05-21T04:38:21.801Z,25.7
2023-05-21T04:44:17.439Z,25.6
2023-05-21T04:50:09.206Z,25.1
2023-05-21T04:56:00.090Z,24.9
2023-05-21T05:01:55.971Z,24.8
2023-05-21T05:07:48.893Z,24.6
2023-05-21T05:13:41.245Z,24.6
2023-05-21T05:19:19.415Z,24.4
2023-05-21T05:24:55.706Z,24.3
2023-05-21T05:30:46.384Z,24.3
2023-05-21T05:36:38.099Z,24.1
2023-05-21T05:42:29.454Z,24.1
2023-05-21T05:48:24.201Z,24.1
2023-05-21T05:54:15.564Z,24
2023-05-21T06:00:07.747Z,23.9
2023-05-21T06:05:59.547Z,23.9
2023-05-21T06:11:37.308Z,23.9
2023-05-21T06:17:35.172Z,23.8
2023-05-21T06:23:26.075Z,23.8
2023-05-21T06:29:18.591Z,23.8
2023-05-21T06:35:10.756Z,23.8
2023-05-21T06:41:02.124Z,23.8
2023-05-21T06:46:53.988Z,23.7
2023-05-21T06:52:45.336Z,23.7
2023-05-21T06:58:39.163Z,22.1
2023-05-21T07:04:31.779Z,48.1
2023-05-21T07:10:22.725Z,45.3
2023-05-21T07:16:13.678Z,38.6
2023-05-21T07:22:05.442Z,34.7
2023-05-21T07:28:13.167Z,46.1
2023-05-21T07:34:04.359Z,50.7
2023-05-21T07:39:57.561Z,44.8
2023-05-21T07:45:49.500Z,49.2
2023-05-21T07:51:42.653Z,51.8
2023-05-21T07:57:36.461Z,47.6
2023-05-21T08:03:29.005Z,45.4
2023-05-21T08:09:23.509Z,46.3
2023-05-21T08:15:00.672Z,49.9
2023-05-21T08:20:56.266Z,50.5
2023-05-21T08:26:47.754Z,47.6
2023-05-21T08:32:39.976Z,45.1
2023-05-21T08:38:31.715Z,49.4
2023-05-21T08:44:39.593Z,54.3
2023-05-21T08:50:16.953Z,54.9
2023-05-21T08:56:17.080Z,54.1
2023-05-21T09:08:00.831Z,57.1
2023-05-21T09:13:55.326Z,57.5
2023-05-21T09:19:47.121Z,56.7
2023-05-21T09:25:43.036Z,55.1
2023-05-21T09:31:37.560Z,57.2
2023-05-21T09:37:42.988Z,53.4
2023-05-21T09:43:39.197Z,55.1
2023-05-21T09:49:33.039Z,52.6
2023-05-21T09:55:24.878Z,56.4
2023-05-21T10:01:16.964Z,59.3
2023-05-21T10:07:10.058Z,60.8
2023-05-21T10:13:02.541Z,61.5
2023-05-21T10:18:55.912Z,60.5
2023-05-21T10:24:47.455Z,59.4
2023-05-21T10:30:42.413Z,60.5
2023-05-21T10:36:34.956Z,60.3
2023-05-21T10:42:28.200Z,60.4
2023-05-21T10:48:20.614Z,60.3
2023-05-21T10:53:59.924Z,54.2
2023-05-21T10:59:36.977Z,49.6
2023-05-21T11:05:29.630Z,45.9
2023-05-21T11:11:21.539Z,42.1
2023-05-21T11:16:57.805Z,39.6
2023-05-21T11:22:34.283Z,37.8
2023-05-21T11:28:12.702Z,36.4
2023-05-21T11:33:50.266Z,35.3
2023-05-21T11:39:43.227Z,34.4
2023-05-21T11:45:20.045Z,33.7
2023-05-21T11:51:16.430Z,32.9
2023-05-21T11:57:08.449Z,32.4
2023-05-21T12:03:01.429Z,31.9
2023-05-21T12:08:39.145Z,31.4
2023-05-21T12:14:47.193Z,31.1
2023-05-21T12:20:40.185Z,30.7
2023-05-21T12:26:31.826Z,30.4
2023-05-21T12:32:23.782Z,30.1
2023-05-21T12:38:15.718Z,29.8
2023-05-21T12:44:06.885Z,29.6
2023-05-21T12:49:58.482Z,29.3
2023-05-21T12:55:49.385Z,29.1
2023-05-21T13:01:25.935Z,28.9
2023-05-21T13:07:21.225Z,28.8
2023-05-21T13:13:17.076Z,28.7
2023-05-21T13:19:12.832Z,28.6
2023-05-21T13:25:06.433Z,28.8
2023-05-21T13:30:44.177Z,28.9
2023-05-21T13:36:22.588Z,29
2023-05-21T13:42:13.691Z,29.1
2023-05-21T13:48:09.746Z,29.1
2023-05-21T13:53:56.892Z,29.2
2023-05-21T13:59:50.255Z,29.1
2023-05-21T14:05:29.110Z,29.1
2023-05-21T14:11:21.412Z,28.9
2023-05-21T14:17:24.961Z,28.7
2023-05-21T14:23:01.736Z,28.6
2023-05-21T14:28:53.207Z,28.4
2023-05-21T14:34:45.799Z,28.4
2023-05-21T14:40:38.057Z,28.3
2023-05-21T14:46:41.922Z,28.3
2023-05-21T14:52:34.665Z,28.2
2023-05-21T14:58:27.619Z,28.1
2023-05-21T15:04:21.347Z,28.1
2023-05-21T15:10:12.916Z,28.1
2023-05-21T15:15:50.487Z,28.1
2023-05-21T15:21:28.651Z,28.1
2023-05-21T15:27:30.422Z,28
2023-05-21T15:33:24.912Z,28
2023-05-21T15:39:20.329Z,28
2023-05-21T15:45:13.087Z,27.9
2023-05-21T15:51:07.754Z,27.9
2023-05-21T16:13:50.974Z,27.8
2023-05-21T16:19:43.397Z,27.8
2023-05-21T16:25:35.965Z,27.8
2023-05-21T16:31:28.454Z,27.8
2023-05-21T16:37:23.499Z,27.8
2023-05-21T16:43:18.091Z,27.8
2023-05-21T16:49:11.098Z,27.8
2023-05-21T16:54:31.786Z,27.7
2023-05-21T17:00:09.590Z,27.7
2023-05-21T17:06:03.040Z,27.7
2023-05-21T17:11:54.438Z,27.6
2023-05-21T17:18:02.868Z,27.6
2023-05-21T17:23:57.200Z,27.6
2023-05-21T17:29:49.478Z,27.6
2023-05-21T17:35:41.503Z,27.5
2023-05-21T17:41:17.682Z,27.5
2023-05-21T17:47:09.569Z,27.4
2023-05-21T17:53:03.477Z,27.4
2023-05-21T17:58:55.038Z,27.4
2023-05-21T18:04:47.332Z,27.4
2023-05-21T18:10:40.661Z,27.4
2023-05-21T18:16:32.592Z,27.4
2023-05-21T18:21:54.194Z,27.4
2023-05-21T18:27:46.760Z,27.4
2023-05-21T18:33:23.700Z,27.4
2023-05-21T18:39:15.281Z,27.3
2023-05-21T18:45:20.269Z,27.3
2023-05-21T18:51:12.571Z,27.3
2023-05-21T18:57:05.020Z,27.3
2023-05-21T19:02:58.118Z,27.2
2023-05-21T19:08:50.635Z,27.2
2023-05-21T19:14:42.783Z,27.2
2023-05-21T19:20:21.044Z,27.1
2023-05-21T19:26:26.024Z,27.1
2023-05-21T19:32:19.769Z,27.1
2023-05-21T19:38:22.699Z,27.1
2023-05-21T19:44:14.955Z,27.1
2023-05-21T19:49:51.972Z,27.1
2023-05-21T19:55:47.023Z,27.1
2023-05-21T20:01:42.700Z,27
2023-05-21T20:07:34.653Z,27
2023-05-21T20:13:26.781Z,27
2023-05-21T20:19:19.432Z,27
2023-05-21T20:25:11.488Z,27
2023-05-21T20:31:03.674Z,27
2023-05-21T20:37:04.827Z,27
2023-05-21T20:42:56.690Z,27
2023-05-21T20:48:34.518Z,27
2023-05-21T20:54:27.350Z,27
2023-05-21T21:00:35.929Z,27
2023-05-21T21:06:29.567Z,27
2023-05-21T21:12:41.152Z,27
2023-05-21T21:18:32.708Z,27
2023-05-21T21:24:25.028Z,27
2023-05-21T21:30:16.972Z,26.9
2023-05-21T21:36:08.672Z,26.9
2023-05-21T21:42:01.313Z,26.9
2023-05-21T21:47:53.295Z,26.8
2023-05-21T21:53:45.314Z,26.8
2023-05-21T21:59:37.965Z,26.8
2023-05-21T22:05:32.165Z,26.8
2023-05-21T22:11:24.320Z,26.7
2023-05-21T22:17:16.514Z,26.7
2023-05-21T22:23:17.572Z,26.6
2023-05-21T22:29:16.164Z,26.6
2023-05-21T22:35:09.299Z,26.6
2023-05-21T22:41:00.382Z,26.5
2023-05-21T22:46:51.511Z,26.5
2023-05-21T22:52:43.378Z,26.5
2023-05-21T22:58:18.803Z,26.4
2023-05-21T23:04:10.066Z,26.4
2023-05-21T23:10:18.657Z,26.4
2023-05-21T23:16:09.434Z,26.4
2023-05-21T23:22:02.043Z,26.3
2023-05-21T23:27:53.994Z,26.3
2023-05-21T23:33:45.908Z,26.3
2023-05-21T23:39:37.317Z,26.3
2023-05-21T23:45:29.283Z,26.3
2023-05-21T23:51:21.431Z,26.3
2023-05-21T23:56:56.682Z,26.3
